Andover, South Dakota
Current Conditions -  °F | °C
As of 11:53 AM on Friday 19 Dec 2014 (Local Time) from KABR Reporting Station
Haze Haze  
Wind Chill: 18°   Ceiling: 500
Heat Index: 30°   Visibility: 4mi
Dew Point: 26°   Wind: 18mph
Humidity: 85%   Direction: 190°S
Pressure: 30.03"   Gusts: NA
Location:  45.41°N, 97.9°W
Report Text: KABR 191753Z AUTO 19016KT 4SM BR OVC005 M01/M03 A3003 RMK AO2 SLP185 T10111033 11011 21028 58009
Loading
Personal Weather Stations






























Interactive Weather Map New forecast layout! Learn more

10-Day Weather Forecast

Advertisements
Track Severe Weather on mobile